Strongsville, Ohio
Current Conditions -  °F | °C
As of 3:51 PM on Saturday 22 Nov 2014 (Local Time) from KCLE Reporting Station
Overcast Overcast  
Wind Chill: 39°   Ceiling: 4400
Heat Index: 45°   Visibility: 10mi
Dew Point: 37°   Wind: 14mph
Humidity: 74%   Direction: 200°SSW
Pressure: 30.07"   Gusts: NA
Location:  41.31°N, 81.83°W
Report Text: KCLE 222051Z 20012KT 10SM OVC044 07/03 A3007 RMK AO2 RAE10 SLP189 P0001 60001 T00720028 56017 $
Loading
Personal Weather Stations






























Interactive Weather Map New forecast layout! Learn more

10-Day Weather Forecast

Advertisements
Track Severe Weather on mobile